sensor_id;sensor_type;location;lat;lon;timestamp;P1;durP1;ratioP1;P2;durP2;ratioP2
44925;SDS011;30662;51.210;7.656;2023-04-10T00:00:17;28.58;;;22.70;;
44925;SDS011;30662;51.210;7.656;2023-04-10T00:02:43;31.40;;;23.40;;
44925;SDS011;30662;51.210;7.656;2023-04-10T00:05:09;30.42;;;22.00;;
44925;SDS011;30662;51.210;7.656;2023-04-10T00:07:36;32.00;;;24.35;;
44925;SDS011;30662;51.210;7.656;2023-04-10T00:10:02;32.95;;;24.17;;
44925;SDS011;30662;51.210;7.656;2023-04-10T00:12:28;31.35;;;23.55;;
44925;SDS011;30662;51.210;7.656;2023-04-10T00:14:54;31.13;;;23.05;;
44925;SDS011;30662;51.210;7.656;2023-04-10T00:17:20;29.00;;;22.42;;
44925;SDS011;30662;51.210;7.656;2023-04-10T00:19:46;28.88;;;20.48;;
44925;SDS011;30662;51.210;7.656;2023-04-10T00:22:12;30.75;;;22.77;;
44925;SDS011;30662;51.210;7.656;2023-04-10T00:24:39;29.77;;;22.00;;
44925;SDS011;30662;51.210;7.656;2023-04-10T00:27:05;27.60;;;20.98;;
44925;SDS011;30662;51.210;7.656;2023-04-10T00:29:31;29.38;;;20.88;;
44925;SDS011;30662;51.210;7.656;2023-04-10T00:31:57;27.02;;;21.08;;
44925;SDS011;30662;51.210;7.656;2023-04-10T00:34:23;26.65;;;19.90;;
44925;SDS011;30662;51.210;7.656;2023-04-10T00:36:50;26.67;;;20.67;;
44925;SDS011;30662;51.210;7.656;2023-04-10T00:39:28;27.23;;;19.27;;
44925;SDS011;30662;51.210;7.656;2023-04-10T00:41:55;25.63;;;19.33;;
44925;SDS011;30662;51.210;7.656;2023-04-10T00:44:22;26.25;;;19.08;;
44925;SDS011;30662;51.210;7.656;2023-04-10T00:46:48;24.10;;;18.25;;
44925;SDS011;30662;51.210;7.656;2023-04-10T00:49:14;25.70;;;18.95;;
44925;SDS011;30662;51.210;7.656;2023-04-10T00:51:42;24.85;;;18.83;;
44925;SDS011;30662;51.210;7.656;2023-04-10T00:54:09;25.30;;;19.00;;
44925;SDS011;30662;51.210;7.656;2023-04-10T00:56:35;22.17;;;17.30;;
44925;SDS011;30662;51.210;7.656;2023-04-10T00:59:02;23.08;;;17.30;;
44925;SDS011;30662;51.210;7.656;2023-04-10T01:01:31;22.42;;;17.02;;
44925;SDS011;30662;51.210;7.656;2023-04-10T01:03:57;21.77;;;16.75;;
44925;SDS011;30662;51.210;7.656;2023-04-10T01:06:28;23.25;;;17.75;;
44925;SDS011;30662;51.210;7.656;2023-04-10T01:11:52;23.58;;;17.27;;
44925;SDS011;30662;51.210;7.656;2023-04-10T01:17:03;22.42;;;16.90;;
44925;SDS011;30662;51.210;7.656;2023-04-10T01:25:53;20.77;;;16.40;;
44925;SDS011;30662;51.210;7.656;2023-04-10T01:31:05;23.52;;;16.27;;
44925;SDS011;30662;51.210;7.656;2023-04-10T01:33:39;20.83;;;15.95;;
44925;SDS011;30662;51.210;7.656;2023-04-10T01:36:11;21.30;;;16.80;;
44925;SDS011;30662;51.210;7.656;2023-04-10T01:38:42;19.25;;;15.52;;
44925;SDS011;30662;51.210;7.656;2023-04-10T01:41:09;22.95;;;16.42;;
44925;SDS011;30662;51.210;7.656;2023-04-10T01:43:37;20.42;;;16.00;;
44925;SDS011;30662;51.210;7.656;2023-04-10T01:46:06;22.08;;;14.90;;
44925;SDS011;30662;51.210;7.656;2023-04-10T01:48:32;21.00;;;14.80;;
44925;SDS011;30662;51.210;7.656;2023-04-10T01:51:01;19.25;;;14.63;;
44925;SDS011;30662;51.210;7.656;2023-04-10T01:53:31;17.55;;;14.25;;
44925;SDS011;30662;51.210;7.656;2023-04-10T01:55:58;17.10;;;13.75;;
44925;SDS011;30662;51.210;7.656;2023-04-10T01:58:25;18.13;;;13.52;;
44925;SDS011;30662;51.210;7.656;2023-04-10T02:00:51;15.82;;;13.15;;
44925;SDS011;30662;51.210;7.656;2023-04-10T02:03:17;17.40;;;13.95;;
44925;SDS011;30662;51.210;7.656;2023-04-10T02:08:48;16.83;;;12.85;;
44925;SDS011;30662;51.210;7.656;2023-04-10T02:11:24;17.13;;;13.73;;
44925;SDS011;30662;51.210;7.656;2023-04-10T02:13:53;17.63;;;13.27;;
44925;SDS011;30662;51.210;7.656;2023-04-10T02:16:24;20.13;;;14.38;;
44925;SDS011;30662;51.210;7.656;2023-04-10T02:18:52;19.55;;;13.95;;
44925;SDS011;30662;51.210;7.656;2023-04-10T02:21:19;20.17;;;14.10;;
44925;SDS011;30662;51.210;7.656;2023-04-10T02:23:45;19.25;;;14.20;;
44925;SDS011;30662;51.210;7.656;2023-04-10T02:26:11;16.45;;;13.10;;
44925;SDS011;30662;51.210;7.656;2023-04-10T02:28:37;16.48;;;13.45;;
44925;SDS011;30662;51.210;7.656;2023-04-10T02:31:04;17.23;;;13.82;;
44925;SDS011;30662;51.210;7.656;2023-04-10T02:33:31;15.55;;;12.75;;
44925;SDS011;30662;51.210;7.656;2023-04-10T02:35:58;18.75;;;13.77;;
44925;SDS011;30662;51.210;7.656;2023-04-10T02:38:25;17.80;;;14.18;;
44925;SDS011;30662;51.210;7.656;2023-04-10T02:40:52;17.83;;;13.65;;
44925;SDS011;30662;51.210;7.656;2023-04-10T02:43:18;15.88;;;12.77;;
44925;SDS011;30662;51.210;7.656;2023-04-10T02:45:43;15.50;;;12.45;;
44925;SDS011;30662;51.210;7.656;2023-04-10T02:48:09;18.33;;;13.75;;
44925;SDS011;30662;51.210;7.656;2023-04-10T02:50:35;16.45;;;12.82;;
44925;SDS011;30662;51.210;7.656;2023-04-10T02:53:01;14.65;;;11.55;;
44925;SDS011;30662;51.210;7.656;2023-04-10T02:55:27;14.00;;;12.00;;
44925;SDS011;30662;51.210;7.656;2023-04-10T02:57:53;15.68;;;12.18;;
44925;SDS011;30662;51.210;7.656;2023-04-10T03:00:20;15.18;;;11.75;;
44925;SDS011;30662;51.210;7.656;2023-04-10T03:02:47;16.65;;;12.60;;
44925;SDS011;30662;51.210;7.656;2023-04-10T03:05:13;15.45;;;11.85;;
44925;SDS011;30662;51.210;7.656;2023-04-10T03:07:39;14.77;;;12.00;;
44925;SDS011;30662;51.210;7.656;2023-04-10T03:10:06;14.23;;;11.63;;
44925;SDS011;30662;51.210;7.656;2023-04-10T03:12:32;14.20;;;11.00;;
44925;SDS011;30662;51.210;7.656;2023-04-10T03:14:58;14.68;;;12.02;;
44925;SDS011;30662;51.210;7.656;2023-04-10T03:17:24;14.48;;;11.90;;
44925;SDS011;30662;51.210;7.656;2023-04-10T03:19:50;14.32;;;12.27;;
44925;SDS011;30662;51.210;7.656;2023-04-10T03:22:16;15.27;;;12.05;;
44925;SDS011;30662;51.210;7.656;2023-04-10T03:24:42;14.18;;;11.63;;
44925;SDS011;30662;51.210;7.656;2023-04-10T03:27:08;13.30;;;11.85;;
44925;SDS011;30662;51.210;7.656;2023-04-10T03:29:34;13.32;;;11.13;;
44925;SDS011;30662;51.210;7.656;2023-04-10T03:32:00;13.75;;;11.13;;
44925;SDS011;30662;51.210;7.656;2023-04-10T03:34:26;15.27;;;11.15;;
44925;SDS011;30662;51.210;7.656;2023-04-10T03:36:52;13.63;;;10.80;;
44925;SDS011;30662;51.210;7.656;2023-04-10T03:39:18;13.65;;;11.07;;
44925;SDS011;30662;51.210;7.656;2023-04-10T03:41:44;14.93;;;11.30;;
44925;SDS011;30662;51.210;7.656;2023-04-10T03:44:10;13.25;;;11.13;;
44925;SDS011;30662;51.210;7.656;2023-04-10T03:46:35;13.30;;;11.00;;
44925;SDS011;30662;51.210;7.656;2023-04-10T03:49:01;12.20;;;10.50;;
44925;SDS011;30662;51.210;7.656;2023-04-10T03:51:27;14.02;;;10.95;;
44925;SDS011;30662;51.210;7.656;2023-04-10T03:53:54;14.68;;;11.35;;
44925;SDS011;30662;51.210;7.656;2023-04-10T03:56:20;12.38;;;10.95;;
44925;SDS011;30662;51.210;7.656;2023-04-10T03:58:47;13.43;;;10.82;;
44925;SDS011;30662;51.210;7.656;2023-04-10T04:01:13;12.60;;;11.05;;
44925;SDS011;30662;51.210;7.656;2023-04-10T04:03:39;12.90;;;10.55;;
44925;SDS011;30662;51.210;7.656;2023-04-10T04:06:05;11.27;;;9.90;;
44925;SDS011;30662;51.210;7.656;2023-04-10T04:08:31;14.48;;;11.07;;
44925;SDS011;30662;51.210;7.656;2023-04-10T04:10:57;11.30;;;9.38;;
44925;SDS011;30662;51.210;7.656;2023-04-10T04:13:23;12.23;;;9.82;;
44925;SDS011;30662;51.210;7.656;2023-04-10T04:15:49;12.95;;;10.55;;
44925;SDS011;30662;51.210;7.656;2023-04-10T04:18:15;14.05;;;10.18;;
44925;SDS011;30662;51.210;7.656;2023-04-10T04:20:41;10.60;;;9.48;;
44925;SDS011;30662;51.210;7.656;2023-04-10T04:23:07;11.43;;;10.05;;
44925;SDS011;30662;51.210;7.656;2023-04-10T04:25:33;13.20;;;10.43;;
44925;SDS011;30662;51.210;7.656;2023-04-10T04:27:59;11.68;;;9.73;;
44925;SDS011;30662;51.210;7.656;2023-04-10T04:30:25;11.60;;;9.80;;
44925;SDS011;30662;51.210;7.656;2023-04-10T04:32:51;12.82;;;9.98;;
44925;SDS011;30662;51.210;7.656;2023-04-10T04:35:17;11.23;;;9.57;;
44925;SDS011;30662;51.210;7.656;2023-04-10T04:37:43;10.90;;;9.57;;
44925;SDS011;30662;51.210;7.656;2023-04-10T04:40:10;11.63;;;9.90;;
44925;SDS011;30662;51.210;7.656;2023-04-10T04:42:36;12.38;;;10.60;;
44925;SDS011;30662;51.210;7.656;2023-04-10T04:45:02;11.38;;;9.35;;
44925;SDS011;30662;51.210;7.656;2023-04-10T04:47:28;11.80;;;10.00;;
44925;SDS011;30662;51.210;7.656;2023-04-10T04:49:55;11.82;;;9.75;;
44925;SDS011;30662;51.210;7.656;2023-04-10T04:52:21;12.25;;;9.13;;
44925;SDS011;30662;51.210;7.656;2023-04-10T04:54:48;12.60;;;8.65;;
44925;SDS011;30662;51.210;7.656;2023-04-10T04:57:14;10.75;;;9.60;;
44925;SDS011;30662;51.210;7.656;2023-04-10T04:59:40;11.77;;;9.48;;
44925;SDS011;30662;51.210;7.656;2023-04-10T05:02:05;10.93;;;8.80;;
44925;SDS011;30662;51.210;7.656;2023-04-10T05:04:32;10.60;;;8.55;;
44925;SDS011;30662;51.210;7.656;2023-04-10T05:06:58;9.93;;;8.73;;
44925;SDS011;30662;51.210;7.656;2023-04-10T05:09:24;10.38;;;8.75;;
44925;SDS011;30662;51.210;7.656;2023-04-10T05:11:50;10.70;;;9.10;;
44925;SDS011;30662;51.210;7.656;2023-04-10T05:14:16;11.02;;;9.52;;
44925;SDS011;30662;51.210;7.656;2023-04-10T05:16:42;9.75;;;8.57;;
44925;SDS011;30662;51.210;7.656;2023-04-10T05:19:08;9.70;;;8.57;;
44925;SDS011;30662;51.210;7.656;2023-04-10T05:21:33;10.85;;;9.43;;
44925;SDS011;30662;51.210;7.656;2023-04-10T05:24:02;10.43;;;8.20;;
44925;SDS011;30662;51.210;7.656;2023-04-10T05:26:28;11.40;;;8.77;;
44925;SDS011;30662;51.210;7.656;2023-04-10T05:28:54;10.82;;;8.63;;
44925;SDS011;30662;51.210;7.656;2023-04-10T05:31:20;11.32;;;8.82;;
44925;SDS011;30662;51.210;7.656;2023-04-10T05:33:46;10.52;;;8.98;;
44925;SDS011;30662;51.210;7.656;2023-04-10T05:36:12;9.63;;;8.65;;
44925;SDS011;30662;51.210;7.656;2023-04-10T05:38:39;10.15;;;8.45;;
44925;SDS011;30662;51.210;7.656;2023-04-10T05:41:05;10.35;;;8.63;;
44925;SDS011;30662;51.210;7.656;2023-04-10T05:43:31;10.90;;;8.57;;
44925;SDS011;30662;51.210;7.656;2023-04-10T05:45:57;11.13;;;8.55;;
44925;SDS011;30662;51.210;7.656;2023-04-10T05:48:23;9.05;;;8.02;;
44925;SDS011;30662;51.210;7.656;2023-04-10T05:50:51;12.00;;;8.70;;
44925;SDS011;30662;51.210;7.656;2023-04-10T05:53:18;11.00;;;7.90;;
44925;SDS011;30662;51.210;7.656;2023-04-10T05:55:44;10.43;;;8.80;;
44925;SDS011;30662;51.210;7.656;2023-04-10T05:58:15;10.75;;;8.57;;
44925;SDS011;30662;51.210;7.656;2023-04-10T06:00:41;9.55;;;7.88;;
44925;SDS011;30662;51.210;7.656;2023-04-10T06:03:07;8.98;;;8.02;;
44925;SDS011;30662;51.210;7.656;2023-04-10T06:05:34;9.95;;;8.27;;
44925;SDS011;30662;51.210;7.656;2023-04-10T06:08:00;8.98;;;8.05;;
44925;SDS011;30662;51.210;7.656;2023-04-10T06:10:29;10.95;;;7.97;;
44925;SDS011;30662;51.210;7.656;2023-04-10T06:12:55;10.68;;;8.35;;
44925;SDS011;30662;51.210;7.656;2023-04-10T06:15:21;9.80;;;7.57;;
44925;SDS011;30662;51.210;7.656;2023-04-10T06:17:47;9.13;;;7.45;;
44925;SDS011;30662;51.210;7.656;2023-04-10T06:20:13;8.18;;;7.32;;
44925;SDS011;30662;51.210;7.656;2023-04-10T06:22:39;7.90;;;7.07;;
44925;SDS011;30662;51.210;7.656;2023-04-10T06:25:05;8.07;;;7.07;;
44925;SDS011;30662;51.210;7.656;2023-04-10T06:27:32;8.50;;;7.45;;
44925;SDS011;30662;51.210;7.656;2023-04-10T06:30:01;8.07;;;7.25;;
44925;SDS011;30662;51.210;7.656;2023-04-10T06:32:27;9.02;;;7.45;;
44925;SDS011;30662;51.210;7.656;2023-04-10T06:34:56;8.05;;;7.18;;
44925;SDS011;30662;51.210;7.656;2023-04-10T06:37:26;9.30;;;7.45;;
44925;SDS011;30662;51.210;7.656;2023-04-10T06:40:01;9.82;;;7.40;;
44925;SDS011;30662;51.210;7.656;2023-04-10T06:42:38;7.63;;;6.38;;
44925;SDS011;30662;51.210;7.656;2023-04-10T06:45:05;7.55;;;6.40;;
44925;SDS011;30662;51.210;7.656;2023-04-10T06:47:32;8.23;;;6.28;;
44925;SDS011;30662;51.210;7.656;2023-04-10T06:49:58;7.78;;;6.20;;
44925;SDS011;30662;51.210;7.656;2023-04-10T06:52:27;7.13;;;5.30;;
44925;SDS011;30662;51.210;7.656;2023-04-10T06:54:53;6.32;;;5.43;;
44925;SDS011;30662;51.210;7.656;2023-04-10T06:57:19;6.78;;;5.53;;
44925;SDS011;30662;51.210;7.656;2023-04-10T06:59:45;6.45;;;5.75;;
44925;SDS011;30662;51.210;7.656;2023-04-10T07:02:11;7.65;;;5.72;;
44925;SDS011;30662;51.210;7.656;2023-04-10T07:04:37;5.22;;;4.72;;
44925;SDS011;30662;51.210;7.656;2023-04-10T07:07:03;6.30;;;5.68;;
44925;SDS011;30662;51.210;7.656;2023-04-10T07:09:29;6.57;;;5.57;;
44925;SDS011;30662;51.210;7.656;2023-04-10T07:11:56;5.55;;;4.95;;
44925;SDS011;30662;51.210;7.656;2023-04-10T07:14:22;6.10;;;5.47;;
44925;SDS011;30662;51.210;7.656;2023-04-10T07:16:48;7.47;;;6.57;;
44925;SDS011;30662;51.210;7.656;2023-04-10T07:19:14;5.50;;;4.97;;
44925;SDS011;30662;51.210;7.656;2023-04-10T07:21:40;6.07;;;5.43;;
44925;SDS011;30662;51.210;7.656;2023-04-10T07:24:06;7.47;;;5.25;;
44925;SDS011;30662;51.210;7.656;2023-04-10T07:26:32;6.35;;;5.60;;
44925;SDS011;30662;51.210;7.656;2023-04-10T07:28:58;6.03;;;5.43;;
44925;SDS011;30662;51.210;7.656;2023-04-10T07:31:24;6.57;;;5.85;;
44925;SDS011;30662;51.210;7.656;2023-04-10T07:33:50;6.32;;;5.72;;
44925;SDS011;30662;51.210;7.656;2023-04-10T07:36:16;6.00;;;5.40;;
44925;SDS011;30662;51.210;7.656;2023-04-10T07:38:43;6.80;;;5.50;;
44925;SDS011;30662;51.210;7.656;2023-04-10T07:41:08;6.93;;;5.60;;
44925;SDS011;30662;51.210;7.656;2023-04-10T07:43:36;6.25;;;5.47;;
44925;SDS011;30662;51.210;7.656;2023-04-10T07:46:02;5.93;;;5.32;;
44925;SDS011;30662;51.210;7.656;2023-04-10T07:48:28;6.05;;;5.45;;
44925;SDS011;30662;51.210;7.656;2023-04-10T07:50:54;5.97;;;5.30;;
44925;SDS011;30662;51.210;7.656;2023-04-10T07:53:20;5.38;;;4.88;;
44925;SDS011;30662;51.210;7.656;2023-04-10T07:55:48;5.70;;;5.15;;
44925;SDS011;30662;51.210;7.656;2023-04-10T07:58:14;5.00;;;4.45;;
44925;SDS011;30662;51.210;7.656;2023-04-10T08:00:41;7.10;;;5.75;;
44925;SDS011;30662;51.210;7.656;2023-04-10T08:03:07;5.20;;;4.70;;
44925;SDS011;30662;51.210;7.656;2023-04-10T08:05:33;10.02;;;4.80;;
44925;SDS011;30662;51.210;7.656;2023-04-10T08:07:59;6.00;;;4.90;;
44925;SDS011;30662;51.210;7.656;2023-04-10T08:10:25;6.43;;;4.63;;
44925;SDS011;30662;51.210;7.656;2023-04-10T08:12:51;5.15;;;4.65;;
44925;SDS011;30662;51.210;7.656;2023-04-10T08:15:17;6.00;;;4.53;;
44925;SDS011;30662;51.210;7.656;2023-04-10T08:17:43;5.25;;;4.75;;
44925;SDS011;30662;51.210;7.656;2023-04-10T08:20:10;5.55;;;4.93;;
44925;SDS011;30662;51.210;7.656;2023-04-10T08:22:36;5.60;;;4.35;;
44925;SDS011;30662;51.210;7.656;2023-04-10T08:25:03;5.15;;;4.65;;
44925;SDS011;30662;51.210;7.656;2023-04-10T08:27:30;5.88;;;5.28;;
44925;SDS011;30662;51.210;7.656;2023-04-10T08:29:56;6.97;;;5.40;;
44925;SDS011;30662;51.210;7.656;2023-04-10T08:32:22;7.22;;;4.97;;
44925;SDS011;30662;51.210;7.656;2023-04-10T08:34:50;5.85;;;5.20;;
44925;SDS011;30662;51.210;7.656;2023-04-10T08:37:16;5.38;;;4.57;;
44925;SDS011;30662;51.210;7.656;2023-04-10T08:39:44;5.50;;;4.43;;
44925;SDS011;30662;51.210;7.656;2023-04-10T08:42:10;5.25;;;4.70;;
44925;SDS011;30662;51.210;7.656;2023-04-10T08:44:36;5.75;;;4.45;;
44925;SDS011;30662;51.210;7.656;2023-04-10T08:47:02;5.97;;;4.00;;
44925;SDS011;30662;51.210;7.656;2023-04-10T08:52:04;4.07;;;3.67;;
44925;SDS011;30662;51.210;7.656;2023-04-10T08:54:33;4.35;;;3.95;;
44925;SDS011;30662;51.210;7.656;2023-04-10T08:57:04;4.68;;;4.22;;
44925;SDS011;30662;51.210;7.656;2023-04-10T08:59:35;4.75;;;4.10;;
44925;SDS011;30662;51.210;7.656;2023-04-10T09:02:01;5.63;;;4.63;;
44925;SDS011;30662;51.210;7.656;2023-04-10T09:04:27;6.00;;;4.45;;
44925;SDS011;30662;51.210;7.656;2023-04-10T09:06:54;4.57;;;3.60;;
44925;SDS011;30662;51.210;7.656;2023-04-10T09:09:20;4.30;;;3.90;;
44925;SDS011;30662;51.210;7.656;2023-04-10T09:14:22;5.10;;;4.43;;
44925;SDS011;30662;51.210;7.656;2023-04-10T09:16:52;4.15;;;3.83;;
44925;SDS011;30662;51.210;7.656;2023-04-10T09:19:37;3.97;;;3.67;;
44925;SDS011;30662;51.210;7.656;2023-04-10T09:22:03;3.67;;;3.30;;
44925;SDS011;30662;51.210;7.656;2023-04-10T09:24:30;3.42;;;3.10;;
44925;SDS011;30662;51.210;7.656;2023-04-10T09:27:02;3.47;;;3.17;;
44925;SDS011;30662;51.210;7.656;2023-04-10T09:30:04;3.35;;;3.05;;
44925;SDS011;30662;51.210;7.656;2023-04-10T09:35:12;2.83;;;2.60;;
44925;SDS011;30662;51.210;7.656;2023-04-10T09:37:40;3.47;;;3.17;;
44925;SDS011;30662;51.210;7.656;2023-04-10T09:40:24;3.17;;;2.88;;
44925;SDS011;30662;51.210;7.656;2023-04-10T09:42:50;3.40;;;3.10;;
44925;SDS011;30662;51.210;7.656;2023-04-10T09:45:17;5.22;;;3.38;;
44925;SDS011;30662;51.210;7.656;2023-04-10T09:48:04;3.67;;;3.25;;
44925;SDS011;30662;51.210;7.656;2023-04-10T09:50:38;4.15;;;3.55;;
44925;SDS011;30662;51.210;7.656;2023-04-10T09:53:06;4.18;;;2.67;;
44925;SDS011;30662;51.210;7.656;2023-04-10T09:55:33;2.78;;;2.42;;
44925;SDS011;30662;51.210;7.656;2023-04-10T09:58:00;2.72;;;2.50;;
44925;SDS011;30662;51.210;7.656;2023-04-10T10:00:44;3.25;;;2.95;;
44925;SDS011;30662;51.210;7.656;2023-04-10T10:03:15;5.82;;;3.00;;
44925;SDS011;30662;51.210;7.656;2023-04-10T10:05:43;2.78;;;2.50;;
44925;SDS011;30662;51.210;7.656;2023-04-10T10:08:12;3.17;;;2.88;;
44925;SDS011;30662;51.210;7.656;2023-04-10T10:13:21;2.90;;;2.65;;
44925;SDS011;30662;51.210;7.656;2023-04-10T10:16:10;4.18;;;2.85;;
44925;SDS011;30662;51.210;7.656;2023-04-10T10:21:31;3.38;;;2.70;;
44925;SDS011;30662;51.210;7.656;2023-04-10T10:23:59;3.00;;;2.50;;
44925;SDS011;30662;51.210;7.656;2023-04-10T10:26:27;3.25;;;2.65;;
44925;SDS011;30662;51.210;7.656;2023-04-10T10:28:55;4.72;;;2.83;;
44925;SDS011;30662;51.210;7.656;2023-04-10T10:31:24;5.10;;;3.40;;
44925;SDS011;30662;51.210;7.656;2023-04-10T10:33:51;3.00;;;2.25;;
44925;SDS011;30662;51.210;7.656;2023-04-10T10:36:18;2.58;;;2.38;;
44925;SDS011;30662;51.210;7.656;2023-04-10T10:39:00;2.00;;;1.85;;
44925;SDS011;30662;51.210;7.656;2023-04-10T10:41:37;2.08;;;1.88;;
44925;SDS011;30662;51.210;7.656;2023-04-10T10:46:49;2.40;;;2.17;;
44925;SDS011;30662;51.210;7.656;2023-04-10T10:49:49;11.77;;;2.70;;
44925;SDS011;30662;51.210;7.656;2023-04-10T10:57:51;2.50;;;2.13;;
44925;SDS011;30662;51.210;7.656;2023-04-10T11:00:18;2.20;;;2.00;;
44925;SDS011;30662;51.210;7.656;2023-04-10T11:03:26;2.58;;;2.20;;
44925;SDS011;30662;51.210;7.656;2023-04-10T11:08:13;2.72;;;2.45;;
44925;SDS011;30662;51.210;7.656;2023-04-10T11:13:34;2.47;;;2.08;;
44925;SDS011;30662;51.210;7.656;2023-04-10T11:16:02;2.50;;;2.30;;
44925;SDS011;30662;51.210;7.656;2023-04-10T11:21:31;2.25;;;1.95;;
44925;SDS011;30662;51.210;7.656;2023-04-10T11:31:40;2.28;;;2.08;;
44925;SDS011;30662;51.210;7.656;2023-04-10T11:34:08;8.85;;;2.50;;
44925;SDS011;30662;51.210;7.656;2023-04-10T11:36:38;3.28;;;2.25;;
44925;SDS011;30662;51.210;7.656;2023-04-10T11:39:09;3.35;;;1.90;;
44925;SDS011;30662;51.210;7.656;2023-04-10T11:44:12;2.40;;;2.20;;
44925;SDS011;30662;51.210;7.656;2023-04-10T11:46:43;2.33;;;1.92;;
44925;SDS011;30662;51.210;7.656;2023-04-10T11:49:20;2.05;;;1.85;;
44925;SDS011;30662;51.210;7.656;2023-04-10T11:51:48;2.33;;;1.90;;
44925;SDS011;30662;51.210;7.656;2023-04-10T11:54:16;2.35;;;2.17;;
44925;SDS011;30662;51.210;7.656;2023-04-10T11:56:44;2.50;;;2.20;;
44925;SDS011;30662;51.210;7.656;2023-04-10T11:59:21;2.40;;;1.90;;
44925;SDS011;30662;51.210;7.656;2023-04-10T12:01:49;2.85;;;2.40;;
44925;SDS011;30662;51.210;7.656;2023-04-10T12:04:19;2.92;;;2.63;;
44925;SDS011;30662;51.210;7.656;2023-04-10T12:06:51;2.15;;;1.95;;
44925;SDS011;30662;51.210;7.656;2023-04-10T12:09:20;2.40;;;2.20;;
44925;SDS011;30662;51.210;7.656;2023-04-10T12:11:50;2.42;;;2.20;;
44925;SDS011;30662;51.210;7.656;2023-04-10T12:14:21;1.83;;;1.73;;
44925;SDS011;30662;51.210;7.656;2023-04-10T12:16:48;2.10;;;1.90;;
44925;SDS011;30662;51.210;7.656;2023-04-10T12:19:16;2.28;;;2.08;;
44925;SDS011;30662;51.210;7.656;2023-04-10T12:21:43;2.45;;;2.22;;
44925;SDS011;30662;51.210;7.656;2023-04-10T12:24:10;2.35;;;1.70;;
44925;SDS011;30662;51.210;7.656;2023-04-10T12:26:37;2.97;;;2.20;;
44925;SDS011;30662;51.210;7.656;2023-04-10T12:29:03;2.47;;;2.10;;
44925;SDS011;30662;51.210;7.656;2023-04-10T12:31:32;1.98;;;1.75;;
44925;SDS011;30662;51.210;7.656;2023-04-10T12:33:59;2.78;;;2.38;;
44925;SDS011;30662;51.210;7.656;2023-04-10T12:36:27;3.03;;;2.28;;
44925;SDS011;30662;51.210;7.656;2023-04-10T12:38:58;2.22;;;1.98;;
44925;SDS011;30662;51.210;7.656;2023-04-10T12:41:25;2.58;;;2.38;;
44925;SDS011;30662;51.210;7.656;2023-04-10T12:44:05;1.85;;;1.73;;
44925;SDS011;30662;51.210;7.656;2023-04-10T12:46:38;1.90;;;1.80;;
44925;SDS011;30662;51.210;7.656;2023-04-10T12:49:15;3.90;;;2.00;;
44925;SDS011;30662;51.210;7.656;2023-04-10T12:51:43;2.38;;;1.90;;
44925;SDS011;30662;51.210;7.656;2023-04-10T12:56:57;2.13;;;1.92;;
44925;SDS011;30662;51.210;7.656;2023-04-10T12:59:24;1.88;;;1.67;;
44925;SDS011;30662;51.210;7.656;2023-04-10T13:01:51;2.30;;;1.85;;
44925;SDS011;30662;51.210;7.656;2023-04-10T13:04:18;1.92;;;1.80;;
44925;SDS011;30662;51.210;7.656;2023-04-10T13:06:44;2.10;;;1.75;;
44925;SDS011;30662;51.210;7.656;2023-04-10T13:09:11;2.00;;;1.80;;
44925;SDS011;30662;51.210;7.656;2023-04-10T13:11:38;1.45;;;1.35;;
44925;SDS011;30662;51.210;7.656;2023-04-10T13:14:05;2.10;;;1.85;;
44925;SDS011;30662;51.210;7.656;2023-04-10T13:16:31;1.73;;;1.63;;
44925;SDS011;30662;51.210;7.656;2023-04-10T13:18:57;2.53;;;1.90;;
44925;SDS011;30662;51.210;7.656;2023-04-10T13:21:23;2.15;;;1.90;;
44925;SDS011;30662;51.210;7.656;2023-04-10T13:23:51;3.80;;;2.28;;
44925;SDS011;30662;51.210;7.656;2023-04-10T13:26:17;2.45;;;1.77;;
44925;SDS011;30662;51.210;7.656;2023-04-10T13:28:43;2.65;;;1.95;;
44925;SDS011;30662;51.210;7.656;2023-04-10T13:31:09;2.30;;;2.10;;
44925;SDS011;30662;51.210;7.656;2023-04-10T13:33:35;2.30;;;2.10;;
44925;SDS011;30662;51.210;7.656;2023-04-10T13:36:01;2.40;;;2.10;;
44925;SDS011;30662;51.210;7.656;2023-04-10T13:38:27;2.13;;;1.92;;
44925;SDS011;30662;51.210;7.656;2023-04-10T13:40:53;3.63;;;1.90;;
44925;SDS011;30662;51.210;7.656;2023-04-10T13:43:19;2.25;;;2.03;;
44925;SDS011;30662;51.210;7.656;2023-04-10T13:45:45;3.00;;;2.20;;
44925;SDS011;30662;51.210;7.656;2023-04-10T13:48:11;2.10;;;1.90;;
44925;SDS011;30662;51.210;7.656;2023-04-10T13:50:37;2.63;;;2.42;;
44925;SDS011;30662;51.210;7.656;2023-04-10T13:53:03;1.90;;;1.80;;
44925;SDS011;30662;51.210;7.656;2023-04-10T13:55:29;2.35;;;1.95;;
44925;SDS011;30662;51.210;7.656;2023-04-10T13:57:55;2.22;;;2.03;;
44925;SDS011;30662;51.210;7.656;2023-04-10T14:00:21;2.50;;;1.85;;
44925;SDS011;30662;51.210;7.656;2023-04-10T14:02:47;4.22;;;2.75;;
44925;SDS011;30662;51.210;7.656;2023-04-10T14:05:13;2.40;;;2.20;;
44925;SDS011;30662;51.210;7.656;2023-04-10T14:07:39;3.28;;;2.40;;
44925;SDS011;30662;51.210;7.656;2023-04-10T14:10:05;3.45;;;2.67;;
44925;SDS011;30662;51.210;7.656;2023-04-10T14:12:32;2.25;;;2.05;;
44925;SDS011;30662;51.210;7.656;2023-04-10T14:15:00;2.40;;;2.20;;
44925;SDS011;30662;51.210;7.656;2023-04-10T14:17:26;2.80;;;2.17;;
44925;SDS011;30662;51.210;7.656;2023-04-10T14:19:52;2.17;;;1.90;;
44925;SDS011;30662;51.210;7.656;2023-04-10T14:22:19;2.03;;;1.88;;
44925;SDS011;30662;51.210;7.656;2023-04-10T14:24:45;2.50;;;2.30;;
44925;SDS011;30662;51.210;7.656;2023-04-10T14:27:11;2.85;;;2.63;;
44925;SDS011;30662;51.210;7.656;2023-04-10T14:29:39;2.33;;;2.10;;
44925;SDS011;30662;51.210;7.656;2023-04-10T14:43:51;2.78;;;2.10;;
44925;SDS011;30662;51.210;7.656;2023-04-10T14:46:17;2.72;;;2.28;;
44925;SDS011;30662;51.210;7.656;2023-04-10T14:48:43;2.25;;;1.95;;
44925;SDS011;30662;51.210;7.656;2023-04-10T14:51:09;2.97;;;2.20;;
44925;SDS011;30662;51.210;7.656;2023-04-10T14:53:37;2.80;;;2.50;;
44925;SDS011;30662;51.210;7.656;2023-04-10T14:56:10;2.03;;;1.80;;
44925;SDS011;30662;51.210;7.656;2023-04-10T14:58:38;2.67;;;2.00;;
44925;SDS011;30662;51.210;7.656;2023-04-10T15:01:10;2.40;;;2.20;;
44925;SDS011;30662;51.210;7.656;2023-04-10T15:03:37;2.60;;;2.40;;
44925;SDS011;30662;51.210;7.656;2023-04-10T15:06:04;2.72;;;2.47;;
44925;SDS011;30662;51.210;7.656;2023-04-10T15:08:31;3.13;;;2.40;;
44925;SDS011;30662;51.210;7.656;2023-04-10T15:10:57;2.47;;;2.22;;
44925;SDS011;30662;51.210;7.656;2023-04-10T15:13:23;3.83;;;2.92;;
44925;SDS011;30662;51.210;7.656;2023-04-10T15:15:49;2.20;;;2.00;;
44925;SDS011;30662;51.210;7.656;2023-04-10T15:18:15;2.65;;;2.10;;
44925;SDS011;30662;51.210;7.656;2023-04-10T15:20:41;2.10;;;1.90;;
44925;SDS011;30662;51.210;7.656;2023-04-10T15:23:08;2.45;;;2.25;;
44925;SDS011;30662;51.210;7.656;2023-04-10T15:25:35;4.53;;;1.95;;
44925;SDS011;30662;51.210;7.656;2023-04-10T15:28:01;3.35;;;1.98;;
44925;SDS011;30662;51.210;7.656;2023-04-10T15:30:27;3.22;;;2.67;;
44925;SDS011;30662;51.210;7.656;2023-04-10T15:32:53;2.75;;;1.90;;
44925;SDS011;30662;51.210;7.656;2023-04-10T15:35:19;2.40;;;2.20;;
44925;SDS011;30662;51.210;7.656;2023-04-10T15:37:45;2.25;;;1.98;;
44925;SDS011;30662;51.210;7.656;2023-04-10T15:40:12;3.92;;;2.15;;
44925;SDS011;30662;51.210;7.656;2023-04-10T15:42:38;2.72;;;2.42;;
44925;SDS011;30662;51.210;7.656;2023-04-10T15:45:04;3.28;;;2.10;;
44925;SDS011;30662;51.210;7.656;2023-04-10T15:47:30;2.55;;;2.22;;
44925;SDS011;30662;51.210;7.656;2023-04-10T15:49:56;2.90;;;2.35;;
44925;SDS011;30662;51.210;7.656;2023-04-10T15:52:22;4.55;;;2.20;;